sensor_id;sensor_type;location;lat;lon;timestamp;temperature;humidity
37518;DHT22;23366;52.498;13.446;2023-02-04T00:01:05;4.30;99.90
37518;DHT22;23366;52.498;13.446;2023-02-04T00:03:31;4.30;99.90
37518;DHT22;23366;52.498;13.446;2023-02-04T00:05:57;4.30;99.90
37518;DHT22;23366;52.498;13.446;2023-02-04T00:08:23;4.30;99.90
37518;DHT22;23366;52.498;13.446;2023-02-04T00:10:48;4.30;99.90
37518;DHT22;23366;52.498;13.446;2023-02-04T00:13:14;4.20;99.90
37518;DHT22;23366;52.498;13.446;2023-02-04T00:15:39;4.20;99.90
37518;DHT22;23366;52.498;13.446;2023-02-04T00:18:13;4.00;99.90
37518;DHT22;23366;52.498;13.446;2023-02-04T00:20:39;3.90;99.90
37518;DHT22;23366;52.498;13.446;2023-02-04T00:23:20;3.90;99.90
37518;DHT22;23366;52.498;13.446;2023-02-04T00:25:46;3.80;99.90
37518;DHT22;23366;52.498;13.446;2023-02-04T00:28:12;3.80;99.90
37518;DHT22;23366;52.498;13.446;2023-02-04T00:30:37;3.80;99.90
37518;DHT22;23366;52.498;13.446;2023-02-04T00:33:03;3.70;99.90
37518;DHT22;23366;52.498;13.446;2023-02-04T00:35:28;3.70;99.90
37518;DHT22;23366;52.498;13.446;2023-02-04T00:37:54;3.70;99.90
37518;DHT22;23366;52.498;13.446;2023-02-04T00:40:19;3.70;99.90
37518;DHT22;23366;52.498;13.446;2023-02-04T00:42:45;3.60;99.90
37518;DHT22;23366;52.498;13.446;2023-02-04T00:45:11;3.50;99.90
37518;DHT22;23366;52.498;13.446;2023-02-04T00:47:37;3.50;99.90
37518;DHT22;23366;52.498;13.446;2023-02-04T00:50:03;3.40;99.90
37518;DHT22;23366;52.498;13.446;2023-02-04T00:52:29;3.40;99.90
37518;DHT22;23366;52.498;13.446;2023-02-04T00:54:54;3.30;99.90
37518;DHT22;23366;52.498;13.446;2023-02-04T00:57:20;3.30;99.90
37518;DHT22;23366;52.498;13.446;2023-02-04T00:59:45;3.30;99.90
37518;DHT22;23366;52.498;13.446;2023-02-04T01:02:11;3.30;99.90
37518;DHT22;23366;52.498;13.446;2023-02-04T01:04:37;3.30;99.90
37518;DHT22;23366;52.498;13.446;2023-02-04T01:07:02;3.20;99.90
37518;DHT22;23366;52.498;13.446;2023-02-04T01:09:28;3.20;99.90
37518;DHT22;23366;52.498;13.446;2023-02-04T01:11:53;3.20;99.90
37518;DHT22;23366;52.498;13.446;2023-02-04T01:14:19;3.20;99.90
37518;DHT22;23366;52.498;13.446;2023-02-04T01:16:45;3.20;99.90
37518;DHT22;23366;52.498;13.446;2023-02-04T01:19:10;3.20;99.90
37518;DHT22;23366;52.498;13.446;2023-02-04T01:21:36;3.20;99.90
37518;DHT22;23366;52.498;13.446;2023-02-04T01:24:02;3.10;99.90
37518;DHT22;23366;52.498;13.446;2023-02-04T01:26:28;3.10;99.90
37518;DHT22;23366;52.498;13.446;2023-02-04T01:28:53;3.10;99.90
37518;DHT22;23366;52.498;13.446;2023-02-04T01:31:19;3.10;99.90
37518;DHT22;23366;52.498;13.446;2023-02-04T01:33:44;3.10;99.90
37518;DHT22;23366;52.498;13.446;2023-02-04T01:36:10;3.10;99.90
37518;DHT22;23366;52.498;13.446;2023-02-04T01:38:36;3.10;99.90
37518;DHT22;23366;52.498;13.446;2023-02-04T01:41:01;3.10;99.90
37518;DHT22;23366;52.498;13.446;2023-02-04T01:43:28;3.10;99.90
37518;DHT22;23366;52.498;13.446;2023-02-04T01:45:54;3.10;99.90
37518;DHT22;23366;52.498;13.446;2023-02-04T01:48:20;3.00;99.90
37518;DHT22;23366;52.498;13.446;2023-02-04T01:50:48;3.00;99.90
37518;DHT22;23366;52.498;13.446;2023-02-04T01:53:23;3.00;99.90
37518;DHT22;23366;52.498;13.446;2023-02-04T01:55:51;3.00;99.90
37518;DHT22;23366;52.498;13.446;2023-02-04T01:58:17;2.90;99.90
37518;DHT22;23366;52.498;13.446;2023-02-04T02:00:43;2.90;99.90
37518;DHT22;23366;52.498;13.446;2023-02-04T02:03:09;2.90;99.90
37518;DHT22;23366;52.498;13.446;2023-02-04T02:05:44;2.90;99.90
37518;DHT22;23366;52.498;13.446;2023-02-04T02:08:12;2.90;99.90
37518;DHT22;23366;52.498;13.446;2023-02-04T02:10:40;2.90;99.90
37518;DHT22;23366;52.498;13.446;2023-02-04T02:13:07;2.90;99.90
37518;DHT22;23366;52.498;13.446;2023-02-04T02:15:34;3.00;99.90
37518;DHT22;23366;52.498;13.446;2023-02-04T02:18:00;3.00;99.90
37518;DHT22;23366;52.498;13.446;2023-02-04T02:20:26;3.10;99.90
37518;DHT22;23366;52.498;13.446;2023-02-04T02:25:43;3.10;99.90
37518;DHT22;23366;52.498;13.446;2023-02-04T02:28:12;3.20;99.90
37518;DHT22;23366;52.498;13.446;2023-02-04T02:30:39;3.20;99.90
37518;DHT22;23366;52.498;13.446;2023-02-04T02:33:05;3.20;99.90
37518;DHT22;23366;52.498;13.446;2023-02-04T02:35:31;3.20;99.90
37518;DHT22;23366;52.498;13.446;2023-02-04T02:37:57;3.20;99.90
37518;DHT22;23366;52.498;13.446;2023-02-04T02:40:23;3.20;99.90
37518;DHT22;23366;52.498;13.446;2023-02-04T02:42:50;3.10;99.90
37518;DHT22;23366;52.498;13.446;2023-02-04T02:45:25;3.10;99.90
37518;DHT22;23366;52.498;13.446;2023-02-04T02:47:52;3.00;99.90
37518;DHT22;23366;52.498;13.446;2023-02-04T02:50:23;3.00;99.90
37518;DHT22;23366;52.498;13.446;2023-02-04T02:52:51;2.90;99.90
37518;DHT22;23366;52.498;13.446;2023-02-04T02:55:19;2.90;99.90
37518;DHT22;23366;52.498;13.446;2023-02-04T02:57:45;2.90;99.90
37518;DHT22;23366;52.498;13.446;2023-02-04T03:00:26;2.90;99.90
37518;DHT22;23366;52.498;13.446;2023-02-04T03:03:06;2.80;99.90
37518;DHT22;23366;52.498;13.446;2023-02-04T03:05:35;2.80;99.90
37518;DHT22;23366;52.498;13.446;2023-02-04T03:08:02;2.80;99.90
37518;DHT22;23366;52.498;13.446;2023-02-04T03:10:28;2.80;99.90
37518;DHT22;23366;52.498;13.446;2023-02-04T03:12:53;2.70;99.90
37518;DHT22;23366;52.498;13.446;2023-02-04T03:15:19;2.70;99.90
37518;DHT22;23366;52.498;13.446;2023-02-04T03:17:45;2.70;99.90
37518;DHT22;23366;52.498;13.446;2023-02-04T03:20:12;2.70;99.90
37518;DHT22;23366;52.498;13.446;2023-02-04T03:22:38;2.60;99.90
37518;DHT22;23366;52.498;13.446;2023-02-04T03:25:04;2.70;99.90
37518;DHT22;23366;52.498;13.446;2023-02-04T03:27:29;2.70;99.90
37518;DHT22;23366;52.498;13.446;2023-02-04T03:29:55;2.70;99.90
37518;DHT22;23366;52.498;13.446;2023-02-04T03:32:21;2.70;99.90
37518;DHT22;23366;52.498;13.446;2023-02-04T03:34:46;2.60;99.90
37518;DHT22;23366;52.498;13.446;2023-02-04T03:37:12;2.60;99.90
37518;DHT22;23366;52.498;13.446;2023-02-04T03:39:37;2.60;99.90
37518;DHT22;23366;52.498;13.446;2023-02-04T03:42:03;2.60;99.90
37518;DHT22;23366;52.498;13.446;2023-02-04T03:44:28;2.60;99.90
37518;DHT22;23366;52.498;13.446;2023-02-04T03:46:54;2.60;99.90
37518;DHT22;23366;52.498;13.446;2023-02-04T03:49:21;2.60;99.90
37518;DHT22;23366;52.498;13.446;2023-02-04T03:51:47;2.50;99.90
37518;DHT22;23366;52.498;13.446;2023-02-04T03:54:13;2.50;99.90
37518;DHT22;23366;52.498;13.446;2023-02-04T03:56:38;2.50;99.90
37518;DHT22;23366;52.498;13.446;2023-02-04T03:59:04;2.50;99.90
37518;DHT22;23366;52.498;13.446;2023-02-04T04:01:29;2.50;99.90
37518;DHT22;23366;52.498;13.446;2023-02-04T04:03:55;2.50;99.90
37518;DHT22;23366;52.498;13.446;2023-02-04T04:06:20;2.50;99.90
37518;DHT22;23366;52.498;13.446;2023-02-04T04:08:46;2.50;99.90
37518;DHT22;23366;52.498;13.446;2023-02-04T04:11:11;2.50;99.90
37518;DHT22;23366;52.498;13.446;2023-02-04T04:13:37;2.50;99.90
37518;DHT22;23366;52.498;13.446;2023-02-04T04:16:03;2.50;99.90
37518;DHT22;23366;52.498;13.446;2023-02-04T04:18:29;2.50;99.90
37518;DHT22;23366;52.498;13.446;2023-02-04T04:20:55;2.60;99.90
37518;DHT22;23366;52.498;13.446;2023-02-04T04:23:21;2.70;99.90
37518;DHT22;23366;52.498;13.446;2023-02-04T04:25:46;2.70;99.90
37518;DHT22;23366;52.498;13.446;2023-02-04T04:28:12;2.70;99.90
37518;DHT22;23366;52.498;13.446;2023-02-04T04:30:37;2.70;99.90
37518;DHT22;23366;52.498;13.446;2023-02-04T04:33:03;2.80;99.90
37518;DHT22;23366;52.498;13.446;2023-02-04T04:35:28;2.80;99.90
37518;DHT22;23366;52.498;13.446;2023-02-04T04:37:54;2.70;99.90
37518;DHT22;23366;52.498;13.446;2023-02-04T04:40:19;2.80;99.90
37518;DHT22;23366;52.498;13.446;2023-02-04T04:42:45;2.70;99.90
37518;DHT22;23366;52.498;13.446;2023-02-04T04:45:12;2.70;99.90
37518;DHT22;23366;52.498;13.446;2023-02-04T04:47:38;2.70;99.90
37518;DHT22;23366;52.498;13.446;2023-02-04T04:50:04;2.60;99.90
37518;DHT22;23366;52.498;13.446;2023-02-04T04:52:30;2.60;99.90
37518;DHT22;23366;52.498;13.446;2023-02-04T04:54:55;2.50;99.90
37518;DHT22;23366;52.498;13.446;2023-02-04T04:57:21;2.50;99.90
37518;DHT22;23366;52.498;13.446;2023-02-04T04:59:46;2.50;99.90
37518;DHT22;23366;52.498;13.446;2023-02-04T05:02:12;2.50;99.90
37518;DHT22;23366;52.498;13.446;2023-02-04T05:04:37;2.50;99.90
37518;DHT22;23366;52.498;13.446;2023-02-04T05:07:03;2.50;99.90
37518;DHT22;23366;52.498;13.446;2023-02-04T05:09:28;2.50;99.90
37518;DHT22;23366;52.498;13.446;2023-02-04T05:11:55;2.50;99.90
37518;DHT22;23366;52.498;13.446;2023-02-04T05:14:20;2.40;99.90
37518;DHT22;23366;52.498;13.446;2023-02-04T05:16:46;2.40;99.90
37518;DHT22;23366;52.498;13.446;2023-02-04T05:19:11;2.40;99.90
37518;DHT22;23366;52.498;13.446;2023-02-04T05:21:36;2.30;99.90
37518;DHT22;23366;52.498;13.446;2023-02-04T05:24:02;2.30;99.90
37518;DHT22;23366;52.498;13.446;2023-02-04T05:26:28;2.30;99.90
37518;DHT22;23366;52.498;13.446;2023-02-04T05:28:53;2.30;99.90
37518;DHT22;23366;52.498;13.446;2023-02-04T05:31:19;2.30;99.90
37518;DHT22;23366;52.498;13.446;2023-02-04T05:33:44;2.30;99.90
37518;DHT22;23366;52.498;13.446;2023-02-04T05:36:10;2.20;99.90
37518;DHT22;23366;52.498;13.446;2023-02-04T05:38:35;2.20;99.90
37518;DHT22;23366;52.498;13.446;2023-02-04T05:41:01;2.20;99.90
37518;DHT22;23366;52.498;13.446;2023-02-04T05:43:26;2.20;99.90
37518;DHT22;23366;52.498;13.446;2023-02-04T05:45:52;2.20;99.90
37518;DHT22;23366;52.498;13.446;2023-02-04T05:48:17;2.20;99.90
37518;DHT22;23366;52.498;13.446;2023-02-04T05:50:42;2.20;99.90
37518;DHT22;23366;52.498;13.446;2023-02-04T05:53:08;2.20;99.90
37518;DHT22;23366;52.498;13.446;2023-02-04T05:55:34;2.10;99.90
37518;DHT22;23366;52.498;13.446;2023-02-04T05:57:59;2.10;99.90
37518;DHT22;23366;52.498;13.446;2023-02-04T06:00:25;2.10;99.90
37518;DHT22;23366;52.498;13.446;2023-02-04T06:02:50;2.10;99.90
37518;DHT22;23366;52.498;13.446;2023-02-04T06:05:16;2.10;99.90
37518;DHT22;23366;52.498;13.446;2023-02-04T06:07:42;2.10;99.90
37518;DHT22;23366;52.498;13.446;2023-02-04T06:10:10;2.00;99.90
37518;DHT22;23366;52.498;13.446;2023-02-04T06:12:35;2.10;99.90
37518;DHT22;23366;52.498;13.446;2023-02-04T06:15:01;2.00;99.90
37518;DHT22;23366;52.498;13.446;2023-02-04T06:17:26;2.00;99.90
37518;DHT22;23366;52.498;13.446;2023-02-04T06:19:52;2.00;99.90
37518;DHT22;23366;52.498;13.446;2023-02-04T06:22:17;2.00;99.90
37518;DHT22;23366;52.498;13.446;2023-02-04T06:24:43;2.00;99.90
37518;DHT22;23366;52.498;13.446;2023-02-04T06:27:08;2.00;99.90
37518;DHT22;23366;52.498;13.446;2023-02-04T06:29:34;2.00;99.90
37518;DHT22;23366;52.498;13.446;2023-02-04T06:31:59;1.90;99.90
37518;DHT22;23366;52.498;13.446;2023-02-04T06:34:25;1.90;99.90
37518;DHT22;23366;52.498;13.446;2023-02-04T06:36:50;1.90;99.90
37518;DHT22;23366;52.498;13.446;2023-02-04T06:39:16;1.90;99.90
37518;DHT22;23366;52.498;13.446;2023-02-04T06:41:41;1.90;99.90
37518;DHT22;23366;52.498;13.446;2023-02-04T06:44:07;1.90;99.90
37518;DHT22;23366;52.498;13.446;2023-02-04T06:46:32;1.90;99.90
37518;DHT22;23366;52.498;13.446;2023-02-04T06:48:58;1.90;99.90
37518;DHT22;23366;52.498;13.446;2023-02-04T06:51:23;1.90;99.90
37518;DHT22;23366;52.498;13.446;2023-02-04T06:53:49;1.90;99.90
37518;DHT22;23366;52.498;13.446;2023-02-04T06:56:14;1.90;99.90
37518;DHT22;23366;52.498;13.446;2023-02-04T06:58:40;1.90;99.90
37518;DHT22;23366;52.498;13.446;2023-02-04T07:01:05;1.90;99.90
37518;DHT22;23366;52.498;13.446;2023-02-04T07:03:31;1.90;99.90
37518;DHT22;23366;52.498;13.446;2023-02-04T07:05:56;1.90;99.90
37518;DHT22;23366;52.498;13.446;2023-02-04T07:08:22;1.90;99.90
37518;DHT22;23366;52.498;13.446;2023-02-04T07:10:48;2.00;99.90
37518;DHT22;23366;52.498;13.446;2023-02-04T07:13:13;2.00;99.90
37518;DHT22;23366;52.498;13.446;2023-02-04T07:15:39;2.10;99.90
37518;DHT22;23366;52.498;13.446;2023-02-04T07:18:04;2.10;99.90
37518;DHT22;23366;52.498;13.446;2023-02-04T07:20:30;2.10;99.90
37518;DHT22;23366;52.498;13.446;2023-02-04T07:22:55;2.20;99.90
37518;DHT22;23366;52.498;13.446;2023-02-04T07:25:21;2.40;99.90
37518;DHT22;23366;52.498;13.446;2023-02-04T07:27:49;2.50;99.90
37518;DHT22;23366;52.498;13.446;2023-02-04T07:30:15;2.70;99.90
37518;DHT22;23366;52.498;13.446;2023-02-04T07:32:41;2.90;99.90
37518;DHT22;23366;52.498;13.446;2023-02-04T07:35:06;3.10;99.90
37518;DHT22;23366;52.498;13.446;2023-02-04T07:37:32;3.20;99.90
37518;DHT22;23366;52.498;13.446;2023-02-04T07:39:57;3.40;99.90
37518;DHT22;23366;52.498;13.446;2023-02-04T07:42:23;3.60;99.90
37518;DHT22;23366;52.498;13.446;2023-02-04T07:44:48;3.80;99.90
37518;DHT22;23366;52.498;13.446;2023-02-04T07:47:14;4.00;99.90
37518;DHT22;23366;52.498;13.446;2023-02-04T07:49:40;4.10;99.90
37518;DHT22;23366;52.498;13.446;2023-02-04T07:52:05;4.20;99.90
37518;DHT22;23366;52.498;13.446;2023-02-04T07:54:30;4.40;99.90
37518;DHT22;23366;52.498;13.446;2023-02-04T07:56:56;4.60;99.90
37518;DHT22;23366;52.498;13.446;2023-02-04T07:59:21;4.60;99.90
37518;DHT22;23366;52.498;13.446;2023-02-04T08:01:47;4.80;99.90
37518;DHT22;23366;52.498;13.446;2023-02-04T08:04:14;4.90;99.90
37518;DHT22;23366;52.498;13.446;2023-02-04T08:06:39;5.00;99.90
37518;DHT22;23366;52.498;13.446;2023-02-04T08:09:05;5.20;99.90
37518;DHT22;23366;52.498;13.446;2023-02-04T08:11:30;5.30;99.90
37518;DHT22;23366;52.498;13.446;2023-02-04T08:13:56;5.40;99.90
37518;DHT22;23366;52.498;13.446;2023-02-04T08:16:21;5.50;99.90
37518;DHT22;23366;52.498;13.446;2023-02-04T08:18:46;5.70;99.90
37518;DHT22;23366;52.498;13.446;2023-02-04T08:21:12;5.80;99.90
37518;DHT22;23366;52.498;13.446;2023-02-04T08:23:37;5.80;99.90
37518;DHT22;23366;52.498;13.446;2023-02-04T08:26:08;5.80;99.90
37518;DHT22;23366;52.498;13.446;2023-02-04T08:28:34;5.80;99.90
37518;DHT22;23366;52.498;13.446;2023-02-04T08:31:00;5.60;99.90
37518;DHT22;23366;52.498;13.446;2023-02-04T08:33:25;5.50;99.90
37518;DHT22;23366;52.498;13.446;2023-02-04T08:35:51;5.60;99.90
37518;DHT22;23366;52.498;13.446;2023-02-04T08:38:17;5.40;99.90
37518;DHT22;23366;52.498;13.446;2023-02-04T08:40:42;5.40;99.90
37518;DHT22;23366;52.498;13.446;2023-02-04T08:43:08;5.40;99.90
37518;DHT22;23366;52.498;13.446;2023-02-04T08:45:34;5.30;99.90
37518;DHT22;23366;52.498;13.446;2023-02-04T08:47:59;5.30;99.90
37518;DHT22;23366;52.498;13.446;2023-02-04T08:50:25;5.20;99.90
37518;DHT22;23366;52.498;13.446;2023-02-04T08:52:53;5.20;99.90
37518;DHT22;23366;52.498;13.446;2023-02-04T08:55:18;5.30;99.90
37518;DHT22;23366;52.498;13.446;2023-02-04T08:57:44;5.30;99.90
37518;DHT22;23366;52.498;13.446;2023-02-04T09:00:10;5.30;99.90
37518;DHT22;23366;52.498;13.446;2023-02-04T09:02:36;5.20;99.90
37518;DHT22;23366;52.498;13.446;2023-02-04T09:05:01;5.20;99.90
37518;DHT22;23366;52.498;13.446;2023-02-04T09:07:27;5.10;99.90
37518;DHT22;23366;52.498;13.446;2023-02-04T09:09:52;5.20;99.90
37518;DHT22;23366;52.498;13.446;2023-02-04T09:12:18;5.20;99.90
37518;DHT22;23366;52.498;13.446;2023-02-04T09:14:43;5.30;99.90
37518;DHT22;23366;52.498;13.446;2023-02-04T09:17:09;5.30;99.90
37518;DHT22;23366;52.498;13.446;2023-02-04T09:19:34;5.40;99.90
37518;DHT22;23366;52.498;13.446;2023-02-04T09:22:00;5.30;99.90
37518;DHT22;23366;52.498;13.446;2023-02-04T09:24:25;5.30;99.90
37518;DHT22;23366;52.498;13.446;2023-02-04T09:26:51;5.40;99.90
37518;DHT22;23366;52.498;13.446;2023-02-04T09:29:16;5.30;99.90
37518;DHT22;23366;52.498;13.446;2023-02-04T09:31:42;5.30;99.90
37518;DHT22;23366;52.498;13.446;2023-02-04T09:34:07;5.30;99.90
37518;DHT22;23366;52.498;13.446;2023-02-04T09:36:33;5.30;99.90
37518;DHT22;23366;52.498;13.446;2023-02-04T09:39:04;5.20;99.90
37518;DHT22;23366;52.498;13.446;2023-02-04T09:41:31;5.20;99.90
37518;DHT22;23366;52.498;13.446;2023-02-04T09:43:57;5.20;99.90
37518;DHT22;23366;52.498;13.446;2023-02-04T09:46:24;5.10;99.90
37518;DHT22;23366;52.498;13.446;2023-02-04T09:48:53;5.00;99.90
37518;DHT22;23366;52.498;13.446;2023-02-04T09:51:24;5.00;99.90
37518;DHT22;23366;52.498;13.446;2023-02-04T09:53:51;5.00;99.90
37518;DHT22;23366;52.498;13.446;2023-02-04T09:56:18;5.10;99.90
37518;DHT22;23366;52.498;13.446;2023-02-04T09:58:46;5.20;99.90
37518;DHT22;23366;52.498;13.446;2023-02-04T10:01:19;5.40;99.90
37518;DHT22;23366;52.498;13.446;2023-02-04T10:03:47;5.40;99.90
37518;DHT22;23366;52.498;13.446;2023-02-04T10:06:18;5.50;99.90
37518;DHT22;23366;52.498;13.446;2023-02-04T10:08:45;5.50;99.90
37518;DHT22;23366;52.498;13.446;2023-02-04T10:11:11;5.60;99.90
37518;DHT22;23366;52.498;13.446;2023-02-04T10:13:42;5.60;99.90
37518;DHT22;23366;52.498;13.446;2023-02-04T10:16:34;5.70;99.90
37518;DHT22;23366;52.498;13.446;2023-02-04T10:19:05;5.70;99.90
37518;DHT22;23366;52.498;13.446;2023-02-04T10:21:33;5.70;99.90
37518;DHT22;23366;52.498;13.446;2023-02-04T10:24:03;5.60;99.90
37518;DHT22;23366;52.498;13.446;2023-02-04T10:26:30;5.50;99.90
37518;DHT22;23366;52.498;13.446;2023-02-04T10:29:03;5.30;99.90
37518;DHT22;23366;52.498;13.446;2023-02-04T10:31:37;5.40;99.90
37518;DHT22;23366;52.498;13.446;2023-02-04T10:34:15;5.50;99.90
37518;DHT22;23366;52.498;13.446;2023-02-04T10:36:43;5.60;99.90
37518;DHT22;23366;52.498;13.446;2023-02-04T10:39:24;5.80;99.90
37518;DHT22;23366;52.498;13.446;2023-02-04T10:41:52;5.90;99.90
37518;DHT22;23366;52.498;13.446;2023-02-04T10:44:25;5.80;99.90
37518;DHT22;23366;52.498;13.446;2023-02-04T10:47:02;5.80;99.90
37518;DHT22;23366;52.498;13.446;2023-02-04T10:49:27;5.90;99.90
37518;DHT22;23366;52.498;13.446;2023-02-04T10:51:53;6.00;99.90
37518;DHT22;23366;52.498;13.446;2023-02-04T10:54:21;6.10;99.90
37518;DHT22;23366;52.498;13.446;2023-02-04T10:57:15;6.30;99.90
37518;DHT22;23366;52.498;13.446;2023-02-04T10:59:41;6.30;99.90
37518;DHT22;23366;52.498;13.446;2023-02-04T11:02:33;6.30;99.90
37518;DHT22;23366;52.498;13.446;2023-02-04T11:05:00;6.00;99.90
37518;DHT22;23366;52.498;13.446;2023-02-04T11:07:26;5.60;99.90
37518;DHT22;23366;52.498;13.446;2023-02-04T11:09:52;5.50;99.90
37518;DHT22;23366;52.498;13.446;2023-02-04T11:12:34;5.30;99.90
37518;DHT22;23366;52.498;13.446;2023-02-04T11:15:00;5.30;99.90
37518;DHT22;23366;52.498;13.446;2023-02-04T11:17:33;5.30;99.90
37518;DHT22;23366;52.498;13.446;2023-02-04T11:19:58;5.40;99.90
37518;DHT22;23366;52.498;13.446;2023-02-04T11:22:42;5.40;99.90
37518;DHT22;23366;52.498;13.446;2023-02-04T11:25:31;5.40;99.90
37518;DHT22;23366;52.498;13.446;2023-02-04T11:27:57;5.20;99.90
37518;DHT22;23366;52.498;13.446;2023-02-04T11:30:22;5.20;99.90
37518;DHT22;23366;52.498;13.446;2023-02-04T11:33:00;5.20;99.90
37518;DHT22;23366;52.498;13.446;2023-02-04T11:35:27;5.10;99.90
37518;DHT22;23366;52.498;13.446;2023-02-04T11:37:53;5.10;99.90
37518;DHT22;23366;52.498;13.446;2023-02-04T11:40:26;5.10;99.90
37518;DHT22;23366;52.498;13.446;2023-02-04T11:43:22;5.20;99.90
37518;DHT22;23366;52.498;13.446;2023-02-04T11:45:47;5.30;99.90
37518;DHT22;23366;52.498;13.446;2023-02-04T11:48:19;5.50;99.90
37518;DHT22;23366;52.498;13.446;2023-02-04T11:50:55;5.50;99.90
37518;DHT22;23366;52.498;13.446;2023-02-04T11:53:23;5.60;99.90
37518;DHT22;23366;52.498;13.446;2023-02-04T11:55:52;5.50;99.90
37518;DHT22;23366;52.498;13.446;2023-02-04T11:58:19;5.60;99.90
37518;DHT22;23366;52.498;13.446;2023-02-04T12:00:45;5.70;99.90
37518;DHT22;23366;52.498;13.446;2023-02-04T12:03:27;5.70;99.90
37518;DHT22;23366;52.498;13.446;2023-02-04T12:05:58;5.80;99.90
37518;DHT22;23366;52.498;13.446;2023-02-04T12:08:34;5.90;99.90
37518;DHT22;23366;52.498;13.446;2023-02-04T12:11:11;5.90;99.90
37518;DHT22;23366;52.498;13.446;2023-02-04T12:13:52;5.90;99.90
37518;DHT22;23366;52.498;13.446;2023-02-04T12:16:18;6.00;99.90
37518;DHT22;23366;52.498;13.446;2023-02-04T12:18:43;6.10;99.90
37518;DHT22;23366;52.498;13.446;2023-02-04T12:21:09;6.20;99.90
37518;DHT22;23366;52.498;13.446;2023-02-04T12:23:34;6.20;99.90
37518;DHT22;23366;52.498;13.446;2023-02-04T12:26:00;6.20;99.90
37518;DHT22;23366;52.498;13.446;2023-02-04T12:28:26;6.10;99.90
37518;DHT22;23366;52.498;13.446;2023-02-04T12:30:53;5.90;99.90
37518;DHT22;23366;52.498;13.446;2023-02-04T12:33:18;5.70;99.90
37518;DHT22;23366;52.498;13.446;2023-02-04T12:35:44;5.60;99.90
37518;DHT22;23366;52.498;13.446;2023-02-04T12:38:10;5.50;99.90
37518;DHT22;23366;52.498;13.446;2023-02-04T12:40:36;5.40;99.90
37518;DHT22;23366;52.498;13.446;2023-02-04T12:43:02;5.30;99.90
37518;DHT22;23366;52.498;13.446;2023-02-04T12:45:28;5.30;99.90
37518;DHT22;23366;52.498;13.446;2023-02-04T12:47:53;5.10;99.90
37518;DHT22;23366;52.498;13.446;2023-02-04T12:50:19;5.20;99.90
37518;DHT22;23366;52.498;13.446;2023-02-04T12:52:52;5.20;99.90
37518;DHT22;23366;52.498;13.446;2023-02-04T12:55:19;5.20;99.90
37518;DHT22;23366;52.498;13.446;2023-02-04T12:57:44;5.20;99.90
37518;DHT22;23366;52.498;13.446;2023-02-04T13:00:13;5.20;99.90
37518;DHT22;23366;52.498;13.446;2023-02-04T13:02:39;5.10;99.90
37518;DHT22;23366;52.498;13.446;2023-02-04T13:05:05;5.10;99.90
37518;DHT22;23366;52.498;13.446;2023-02-04T13:07:31;5.20;99.90
37518;DHT22;23366;52.498;13.446;2023-02-04T13:09:57;5.10;99.90
37518;DHT22;23366;52.498;13.446;2023-02-04T13:12:23;5.20;99.90
37518;DHT22;23366;52.498;13.446;2023-02-04T13:14:49;5.30;99.90
37518;DHT22;23366;52.498;13.446;2023-02-04T13:17:14;5.30;99.90
37518;DHT22;23366;52.498;13.446;2023-02-04T13:19:40;5.20;99.90
37518;DHT22;23366;52.498;13.446;2023-02-04T13:22:05;5.20;99.90
37518;DHT22;23366;52.498;13.446;2023-02-04T13:24:31;5.10;99.90
37518;DHT22;23366;52.498;13.446;2023-02-04T13:26:56;5.00;99.90
37518;DHT22;23366;52.498;13.446;2023-02-04T13:29:22;4.90;99.90
37518;DHT22;23366;52.498;13.446;2023-02-04T13:31:48;4.80;99.90
37518;DHT22;23366;52.498;13.446;2023-02-04T13:34:13;4.70;99.90
37518;DHT22;23366;52.498;13.446;2023-02-04T13:36:39;4.70;99.90
37518;DHT22;23366;52.498;13.446;2023-02-04T13:39:05;4.70;99.90
37518;DHT22;23366;52.498;13.446;2023-02-04T13:41:30;4.80;99.90
37518;DHT22;23366;52.498;13.446;2023-02-04T13:43:59;4.80;99.90
37518;DHT22;23366;52.498;13.446;2023-02-04T13:46:24;4.80;99.90
37518;DHT22;23366;52.498;13.446;2023-02-04T13:48:50;4.70;99.90
37518;DHT22;23366;52.498;13.446;2023-02-04T13:51:15;4.60;99.90
37518;DHT22;23366;52.498;13.446;2023-02-04T13:53:41;4.60;99.90
37518;DHT22;23366;52.498;13.446;2023-02-04T13:56:08;4.70;99.90
37518;DHT22;23366;52.498;13.446;2023-02-04T13:58:34;4.70;99.90
37518;DHT22;23366;52.498;13.446;2023-02-04T14:01:00;4.80;99.90
37518;DHT22;23366;52.498;13.446;2023-02-04T14:03:26;4.90;99.90
37518;DHT22;23366;52.498;13.446;2023-02-04T14:05:53;5.00;99.90
37518;DHT22;23366;52.498;13.446;2023-02-04T14:08:19;5.10;99.90
37518;DHT22;23366;52.498;13.446;2023-02-04T14:10:45;5.20;99.90
37518;DHT22;23366;52.498;13.446;2023-02-04T14:13:11;5.20;99.90
37518;DHT22;23366;52.498;13.446;2023-02-04T14:15:37;5.30;99.90
37518;DHT22;23366;52.498;13.446;2023-02-04T14:18:03;5.20;99.90
37518;DHT22;23366;52.498;13.446;2023-02-04T14:20:30;5.10;99.90
37518;DHT22;23366;52.498;13.446;2023-02-04T14:22:55;5.00;99.90
37518;DHT22;23366;52.498;13.446;2023-02-04T14:25:21;4.80;99.90
37518;DHT22;23366;52.498;13.446;2023-02-04T14:27:47;4.70;99.90
37518;DHT22;23366;52.498;13.446;2023-02-04T14:30:27;4.60;99.90
37518;DHT22;23366;52.498;13.446;2023-02-04T14:32:53;4.50;99.90
37518;DHT22;23366;52.498;13.446;2023-02-04T14:35:19;4.40;99.90
37518;DHT22;23366;52.498;13.446;2023-02-04T14:37:46;4.30;99.90
37518;DHT22;23366;52.498;13.446;2023-02-04T14:40:12;4.30;99.90
37518;DHT22;23366;52.498;13.446;2023-02-04T14:42:38;4.20;99.90
37518;DHT22;23366;52.498;13.446;2023-02-04T14:45:05;4.20;99.90
37518;DHT22;23366;52.498;13.446;2023-02-04T14:47:33;4.10;99.90
37518;DHT22;23366;52.498;13.446;2023-02-04T14:49:58;4.10;99.90
37518;DHT22;23366;52.498;13.446;2023-02-04T14:52:24;4.10;99.90
37518;DHT22;23366;52.498;13.446;2023-02-04T14:54:49;4.10;99.90
37518;DHT22;23366;52.498;13.446;2023-02-04T14:57:15;4.10;99.90
37518;DHT22;23366;52.498;13.446;2023-02-04T14:59:40;4.10;99.90
37518;DHT22;23366;52.498;13.446;2023-02-04T15:02:08;4.10;99.90
37518;DHT22;23366;52.498;13.446;2023-02-04T15:04:33;4.10;99.90
37518;DHT22;23366;52.498;13.446;2023-02-04T15:06:59;4.10;99.90
37518;DHT22;23366;52.498;13.446;2023-02-04T15:09:24;4.10;99.90
37518;DHT22;23366;52.498;13.446;2023-02-04T15:11:50;4.10;99.90
37518;DHT22;23366;52.498;13.446;2023-02-04T15:14:17;4.10;99.90
37518;DHT22;23366;52.498;13.446;2023-02-04T15:16:42;4.10;99.90
37518;DHT22;23366;52.498;13.446;2023-02-04T15:19:09;4.10;99.90
37518;DHT22;23366;52.498;13.446;2023-02-04T15:21:35;4.10;99.90
37518;DHT22;23366;52.498;13.446;2023-02-04T15:24:01;4.10;99.90
37518;DHT22;23366;52.498;13.446;2023-02-04T15:26:27;4.10;99.90
37518;DHT22;23366;52.498;13.446;2023-02-04T15:28:52;4.00;99.90
37518;DHT22;23366;52.498;13.446;2023-02-04T15:31:20;4.00;99.90